sensor_id;sensor_type;location;lat;lon;timestamp;pressure;altitude;pressure_sealevel;temperature;humidity
75617;BME280;64200;55.426;37.758;2022-12-17T00:00:13;100179.41;;;-4.08;69.65
75617;BME280;64200;55.426;37.758;2022-12-17T00:05:32;100173.63;;;-4.07;70.00
75617;BME280;64200;55.426;37.758;2022-12-17T00:10:52;100170.69;;;-3.98;70.28
75617;BME280;64200;55.426;37.758;2022-12-17T00:16:11;100169.22;;;-3.95;69.86
75617;BME280;64200;55.426;37.758;2022-12-17T00:21:31;100166.84;;;-4.13;69.18
75617;BME280;64200;55.426;37.758;2022-12-17T00:26:50;100158.94;;;-4.18;69.93
75617;BME280;64200;55.426;37.758;2022-12-17T00:32:09;100160.88;;;-4.18;70.07
75617;BME280;64200;55.426;37.758;2022-12-17T00:37:29;100140.94;;;-4.22;70.10
75617;BME280;64200;55.426;37.758;2022-12-17T00:43:01;100127.59;;;-4.44;70.76
75617;BME280;64200;55.426;37.758;2022-12-17T00:48:20;100110.84;;;-4.62;71.16
75617;BME280;64200;55.426;37.758;2022-12-17T00:53:56;100100.03;;;-4.58;70.80
75617;BME280;64200;55.426;37.758;2022-12-17T00:59:15;100086.00;;;-4.76;71.62
75617;BME280;64200;55.426;37.758;2022-12-17T01:04:35;100068.34;;;-4.82;71.74
75617;BME280;64200;55.426;37.758;2022-12-17T01:09:53;100050.63;;;-4.76;72.07
75617;BME280;64200;55.426;37.758;2022-12-17T01:15:13;100062.28;;;-4.91;72.66
75617;BME280;64200;55.426;37.758;2022-12-17T01:20:32;100067.47;;;-4.86;73.24
75617;BME280;64200;55.426;37.758;2022-12-17T01:25:56;100064.56;;;-4.78;73.04
75617;BME280;64200;55.426;37.758;2022-12-17T01:31:15;100047.00;;;-4.80;72.92
75617;BME280;64200;55.426;37.758;2022-12-17T01:36:34;100045.00;;;-4.83;73.50
75617;BME280;64200;55.426;37.758;2022-12-17T01:41:53;100048.00;;;-4.88;73.54
75617;BME280;64200;55.426;37.758;2022-12-17T01:47:13;100043.88;;;-4.82;73.82
75617;BME280;64200;55.426;37.758;2022-12-17T01:52:32;100032.16;;;-4.83;73.57
75617;BME280;64200;55.426;37.758;2022-12-17T01:57:52;100028.75;;;-4.80;74.08
75617;BME280;64200;55.426;37.758;2022-12-17T02:03:15;100025.50;;;-4.69;73.76
75617;BME280;64200;55.426;37.758;2022-12-17T02:14:34;100021.38;;;-4.63;74.14
75617;BME280;64200;55.426;37.758;2022-12-17T02:25:54;99990.88;;;-4.53;73.79
75617;BME280;64200;55.426;37.758;2022-12-17T02:31:15;99983.41;;;-4.56;73.61
75617;BME280;64200;55.426;37.758;2022-12-17T02:36:35;99978.22;;;-4.45;73.63
75617;BME280;64200;55.426;37.758;2022-12-17T02:41:56;99973.31;;;-4.55;74.01
75617;BME280;64200;55.426;37.758;2022-12-17T02:47:16;99962.59;;;-4.48;73.50
75617;BME280;64200;55.426;37.758;2022-12-17T02:52:39;99952.44;;;-4.32;73.54
75617;BME280;64200;55.426;37.758;2022-12-17T02:57:58;99947.94;;;-4.60;73.23
75617;BME280;64200;55.426;37.758;2022-12-17T03:03:17;99938.00;;;-4.87;74.23
75617;BME280;64200;55.426;37.758;2022-12-17T03:08:40;99920.22;;;-4.65;74.42
75617;BME280;64200;55.426;37.758;2022-12-17T03:13:59;99924.94;;;-4.62;74.41
75617;BME280;64200;55.426;37.758;2022-12-17T03:19:18;99910.81;;;-4.68;74.54
75617;BME280;64200;55.426;37.758;2022-12-17T03:24:37;99879.53;;;-4.78;74.94
75617;BME280;64200;55.426;37.758;2022-12-17T03:29:57;99885.53;;;-4.88;75.38
75617;BME280;64200;55.426;37.758;2022-12-17T03:35:16;99884.47;;;-4.64;75.13
75617;BME280;64200;55.426;37.758;2022-12-17T03:40:35;99875.00;;;-4.70;75.20
75617;BME280;64200;55.426;37.758;2022-12-17T03:45:55;99875.59;;;-4.61;75.01
75617;BME280;64200;55.426;37.758;2022-12-17T03:51:14;99875.38;;;-4.52;74.91
75617;BME280;64200;55.426;37.758;2022-12-17T03:56:33;99868.50;;;-4.46;73.99
75617;BME280;64200;55.426;37.758;2022-12-17T04:01:52;99861.13;;;-4.45;74.56
75617;BME280;64200;55.426;37.758;2022-12-17T04:07:12;99859.91;;;-4.48;74.72
75617;BME280;64200;55.426;37.758;2022-12-17T04:12:32;99858.25;;;-4.52;74.58
75617;BME280;64200;55.426;37.758;2022-12-17T04:17:51;99874.09;;;-4.58;74.26
75617;BME280;64200;55.426;37.758;2022-12-17T04:23:11;99857.75;;;-4.58;73.80
75617;BME280;64200;55.426;37.758;2022-12-17T04:28:30;99847.78;;;-4.50;74.37
75617;BME280;64200;55.426;37.758;2022-12-17T04:33:49;99850.03;;;-4.36;74.46
75617;BME280;64200;55.426;37.758;2022-12-17T04:39:09;99829.31;;;-4.41;74.49
75617;BME280;64200;55.426;37.758;2022-12-17T04:44:28;99821.25;;;-4.34;73.94
75617;BME280;64200;55.426;37.758;2022-12-17T04:49:47;99818.78;;;-4.43;74.21
75617;BME280;64200;55.426;37.758;2022-12-17T04:55:07;99809.47;;;-4.61;75.09
75617;BME280;64200;55.426;37.758;2022-12-17T05:00:26;99812.72;;;-4.55;74.70
75617;BME280;64200;55.426;37.758;2022-12-17T05:05:45;99810.81;;;-4.32;74.46
75617;BME280;64200;55.426;37.758;2022-12-17T05:11:05;99814.44;;;-4.24;74.58
75617;BME280;64200;55.426;37.758;2022-12-17T05:16:24;99819.47;;;-4.26;74.90
75617;BME280;64200;55.426;37.758;2022-12-17T05:21:43;99801.56;;;-4.27;74.47
75617;BME280;64200;55.426;37.758;2022-12-17T05:27:03;99800.28;;;-4.33;74.46
75617;BME280;64200;55.426;37.758;2022-12-17T05:32:22;99801.19;;;-4.26;74.44
75617;BME280;64200;55.426;37.758;2022-12-17T05:37:41;99803.16;;;-4.46;74.72
75617;BME280;64200;55.426;37.758;2022-12-17T05:43:03;99774.16;;;-4.38;74.93
75617;BME280;64200;55.426;37.758;2022-12-17T05:48:22;99764.03;;;-4.37;75.16
75617;BME280;64200;55.426;37.758;2022-12-17T05:53:42;99755.81;;;-4.41;74.61
75617;BME280;64200;55.426;37.758;2022-12-17T05:59:01;99739.56;;;-4.34;75.47
75617;BME280;64200;55.426;37.758;2022-12-17T06:04:20;99733.06;;;-4.29;75.15
75617;BME280;64200;55.426;37.758;2022-12-17T06:09:39;99738.59;;;-4.22;75.46
75617;BME280;64200;55.426;37.758;2022-12-17T06:14:59;99725.91;;;-4.14;75.06
75617;BME280;64200;55.426;37.758;2022-12-17T06:20:35;99718.84;;;-4.19;74.64
75617;BME280;64200;55.426;37.758;2022-12-17T06:25:55;99746.66;;;-4.06;74.97
75617;BME280;64200;55.426;37.758;2022-12-17T06:31:14;99749.91;;;-3.97;75.31
75617;BME280;64200;55.426;37.758;2022-12-17T06:36:33;99754.94;;;-3.99;74.94
75617;BME280;64200;55.426;37.758;2022-12-17T06:41:52;99776.88;;;-3.92;75.34
75617;BME280;64200;55.426;37.758;2022-12-17T06:47:12;99761.13;;;-3.79;75.37
75617;BME280;64200;55.426;37.758;2022-12-17T06:52:31;99766.66;;;-3.72;74.91
75617;BME280;64200;55.426;37.758;2022-12-17T06:57:59;99751.25;;;-3.87;75.05
75617;BME280;64200;55.426;37.758;2022-12-17T07:03:18;99702.41;;;-4.22;75.95
75617;BME280;64200;55.426;37.758;2022-12-17T07:08:38;99724.00;;;-4.10;75.86
75617;BME280;64200;55.426;37.758;2022-12-17T07:13:57;99719.66;;;-3.92;75.96
75617;BME280;64200;55.426;37.758;2022-12-17T07:19:16;99712.09;;;-4.02;76.35
75617;BME280;64200;55.426;37.758;2022-12-17T07:24:36;99710.41;;;-3.83;75.95
75617;BME280;64200;55.426;37.758;2022-12-17T07:29:55;99695.25;;;-3.81;76.25
75617;BME280;64200;55.426;37.758;2022-12-17T07:35:14;99707.91;;;-3.96;76.33
75617;BME280;64200;55.426;37.758;2022-12-17T07:40:33;99719.13;;;-3.74;76.15
75617;BME280;64200;55.426;37.758;2022-12-17T07:45:53;99715.81;;;-3.60;75.60
75617;BME280;64200;55.426;37.758;2022-12-17T07:51:12;99719.84;;;-3.50;75.80
75617;BME280;64200;55.426;37.758;2022-12-17T07:56:31;99714.75;;;-3.52;74.56
75617;BME280;64200;55.426;37.758;2022-12-17T08:01:51;99711.50;;;-3.61;74.68
75617;BME280;64200;55.426;37.758;2022-12-17T08:07:10;99692.25;;;-3.76;75.23
75617;BME280;64200;55.426;37.758;2022-12-17T08:12:29;99668.53;;;-3.98;76.03
75617;BME280;64200;55.426;37.758;2022-12-17T08:17:48;99668.38;;;-3.82;76.38
75617;BME280;64200;55.426;37.758;2022-12-17T08:23:07;99677.78;;;-3.49;75.79
75617;BME280;64200;55.426;37.758;2022-12-17T08:28:26;99679.41;;;-3.45;75.27
75617;BME280;64200;55.426;37.758;2022-12-17T08:33:45;99675.94;;;-3.42;75.21
75617;BME280;64200;55.426;37.758;2022-12-17T08:39:04;99650.13;;;-3.48;74.90
75617;BME280;64200;55.426;37.758;2022-12-17T08:44:24;99631.66;;;-3.31;74.73
75617;BME280;64200;55.426;37.758;2022-12-17T08:49:43;99609.88;;;-3.28;74.79
75617;BME280;64200;55.426;37.758;2022-12-17T08:55:03;99603.53;;;-3.36;74.50
75617;BME280;64200;55.426;37.758;2022-12-17T09:00:22;99615.31;;;-3.28;75.10
75617;BME280;64200;55.426;37.758;2022-12-17T09:05:42;99635.28;;;-3.20;74.46
75617;BME280;64200;55.426;37.758;2022-12-17T09:11:01;99629.97;;;-3.06;74.40
75617;BME280;64200;55.426;37.758;2022-12-17T09:16:21;99634.88;;;-3.22;73.58
75617;BME280;64200;55.426;37.758;2022-12-17T09:21:41;99631.41;;;-3.15;74.53
75617;BME280;64200;55.426;37.758;2022-12-17T09:27:00;99626.94;;;-2.97;74.77
75617;BME280;64200;55.426;37.758;2022-12-17T09:32:20;99614.66;;;-3.14;74.04
75617;BME280;64200;55.426;37.758;2022-12-17T09:37:39;99619.91;;;-2.98;74.37
75617;BME280;64200;55.426;37.758;2022-12-17T09:43:14;99608.53;;;-3.04;74.74
75617;BME280;64200;55.426;37.758;2022-12-17T09:48:59;99612.25;;;-2.85;73.92
75617;BME280;64200;55.426;37.758;2022-12-17T09:54:28;99610.34;;;-2.81;73.69
75617;BME280;64200;55.426;37.758;2022-12-17T09:59:50;99626.88;;;-3.04;73.83
75617;BME280;64200;55.426;37.758;2022-12-17T10:05:24;99604.25;;;-3.05;73.96
75617;BME280;64200;55.426;37.758;2022-12-17T10:10:45;99589.97;;;-2.91;73.71
75617;BME280;64200;55.426;37.758;2022-12-17T10:16:20;99594.06;;;-2.67;73.85
75617;BME280;64200;55.426;37.758;2022-12-17T10:21:41;99589.47;;;-2.55;73.54
75617;BME280;64200;55.426;37.758;2022-12-17T10:27:07;99582.31;;;-2.74;73.44
75617;BME280;64200;55.426;37.758;2022-12-17T10:32:27;99581.66;;;-2.60;73.60
75617;BME280;64200;55.426;37.758;2022-12-17T10:37:46;99590.13;;;-2.73;72.77
75617;BME280;64200;55.426;37.758;2022-12-17T10:43:26;99580.53;;;-2.52;73.66
75617;BME280;64200;55.426;37.758;2022-12-17T10:48:45;99559.75;;;-2.64;72.98
75617;BME280;64200;55.426;37.758;2022-12-17T10:59:36;99552.56;;;-2.87;74.23
75617;BME280;64200;55.426;37.758;2022-12-17T11:04:57;99556.97;;;-2.71;74.56
75617;BME280;64200;55.426;37.758;2022-12-17T11:10:22;99565.66;;;-2.62;74.60
75617;BME280;64200;55.426;37.758;2022-12-17T11:15:46;99558.69;;;-2.52;74.25
75617;BME280;64200;55.426;37.758;2022-12-17T11:21:12;99547.31;;;-2.61;74.05
75617;BME280;64200;55.426;37.758;2022-12-17T11:26:35;99537.66;;;-2.48;74.04
75617;BME280;64200;55.426;37.758;2022-12-17T11:37:38;99550.81;;;-2.61;74.07
75617;BME280;64200;55.426;37.758;2022-12-17T11:48:39;99554.03;;;-2.48;73.40
75617;BME280;64200;55.426;37.758;2022-12-17T11:59:39;99547.84;;;-2.38;73.38
75617;BME280;64200;55.426;37.758;2022-12-17T12:11:17;99524.81;;;-2.40;74.18
75617;BME280;64200;55.426;37.758;2022-12-17T12:27:45;99537.53;;;-2.62;73.72
75617;BME280;64200;55.426;37.758;2022-12-17T12:38:52;99552.38;;;-2.63;74.25
75617;BME280;64200;55.426;37.758;2022-12-17T12:44:21;99560.63;;;-2.53;73.95
75617;BME280;64200;55.426;37.758;2022-12-17T12:50:04;99547.47;;;-2.36;73.83
75617;BME280;64200;55.426;37.758;2022-12-17T12:55:39;99539.22;;;-2.43;74.40
75617;BME280;64200;55.426;37.758;2022-12-17T13:01:00;99538.75;;;-2.56;73.94
75617;BME280;64200;55.426;37.758;2022-12-17T13:06:39;99538.72;;;-2.63;74.53
75617;BME280;64200;55.426;37.758;2022-12-17T13:11:42;99533.47;;;-2.83;74.69
75617;BME280;64200;55.426;37.758;2022-12-17T13:21:44;99536.00;;;-2.60;74.18
75617;BME280;64200;55.426;37.758;2022-12-17T13:26:44;99530.53;;;-2.60;74.35
75617;BME280;64200;55.426;37.758;2022-12-17T13:42:23;99511.56;;;-2.38;73.89
75617;BME280;64200;55.426;37.758;2022-12-17T13:47:31;99520.47;;;-2.49;73.57
75617;BME280;64200;55.426;37.758;2022-12-17T13:52:32;99502.97;;;-2.40;73.80
75617;BME280;64200;55.426;37.758;2022-12-17T13:57:36;99496.91;;;-2.71;73.73
75617;BME280;64200;55.426;37.758;2022-12-17T14:02:37;99492.56;;;-2.79;73.95
75617;BME280;64200;55.426;37.758;2022-12-17T14:07:39;99496.19;;;-2.65;73.82
75617;BME280;64200;55.426;37.758;2022-12-17T14:12:39;99478.94;;;-2.76;74.46
75617;BME280;64200;55.426;37.758;2022-12-17T14:17:43;99499.75;;;-2.53;74.22
75617;BME280;64200;55.426;37.758;2022-12-17T14:22:58;99498.59;;;-2.52;73.69
75617;BME280;64200;55.426;37.758;2022-12-17T14:28:02;99481.44;;;-2.53;74.01
75617;BME280;64200;55.426;37.758;2022-12-17T14:33:04;99499.47;;;-2.37;73.60
75617;BME280;64200;55.426;37.758;2022-12-17T14:38:23;99485.84;;;-2.34;73.88
75617;BME280;64200;55.426;37.758;2022-12-17T14:43:27;99487.81;;;-2.27;73.75
75617;BME280;64200;55.426;37.758;2022-12-17T14:48:28;99460.88;;;-2.28;74.01
75617;BME280;64200;55.426;37.758;2022-12-17T14:53:49;99448.75;;;-2.35;73.70
75617;BME280;64200;55.426;37.758;2022-12-17T14:58:49;99437.44;;;-2.37;73.19
75617;BME280;64200;55.426;37.758;2022-12-17T15:03:50;99422.16;;;-2.45;73.95
75617;BME280;64200;55.426;37.758;2022-12-17T15:08:50;99415.09;;;-2.53;73.34
75617;BME280;64200;55.426;37.758;2022-12-17T15:13:52;99409.16;;;-2.73;74.20
75617;BME280;64200;55.426;37.758;2022-12-17T15:18:53;99424.47;;;-2.54;74.18
75617;BME280;64200;55.426;37.758;2022-12-17T15:23:53;99404.16;;;-2.53;74.57
75617;BME280;64200;55.426;37.758;2022-12-17T15:28:54;99404.22;;;-2.50;73.89
75617;BME280;64200;55.426;37.758;2022-12-17T15:33:54;99405.75;;;-2.52;74.08
75617;BME280;64200;55.426;37.758;2022-12-17T15:38:55;99417.47;;;-2.48;74.35
75617;BME280;64200;55.426;37.758;2022-12-17T15:43:56;99407.28;;;-2.55;74.08
75617;BME280;64200;55.426;37.758;2022-12-17T15:48:56;99418.59;;;-2.56;73.84
75617;BME280;64200;55.426;37.758;2022-12-17T15:53:57;99414.72;;;-2.55;74.36
75617;BME280;64200;55.426;37.758;2022-12-17T15:58:58;99416.63;;;-2.59;74.42
75617;BME280;64200;55.426;37.758;2022-12-17T16:03:58;99406.16;;;-2.47;74.73
75617;BME280;64200;55.426;37.758;2022-12-17T16:08:59;99420.97;;;-2.48;74.42
75617;BME280;64200;55.426;37.758;2022-12-17T16:14:00;99417.47;;;-2.48;73.53
75617;BME280;64200;55.426;37.758;2022-12-17T16:19:01;99418.63;;;-2.53;74.01
75617;BME280;64200;55.426;37.758;2022-12-17T16:24:01;99408.84;;;-2.57;74.23
75617;BME280;64200;55.426;37.758;2022-12-17T16:29:02;99395.97;;;-2.57;74.43
75617;BME280;64200;55.426;37.758;2022-12-17T16:34:10;99403.44;;;-2.50;73.58
75617;BME280;64200;55.426;37.758;2022-12-17T16:39:15;99424.53;;;-2.43;74.05
75617;BME280;64200;55.426;37.758;2022-12-17T16:44:16;99417.13;;;-2.39;74.29
75617;BME280;64200;55.426;37.758;2022-12-17T16:49:19;99411.28;;;-2.38;73.79
75617;BME280;64200;55.426;37.758;2022-12-17T16:54:22;99407.75;;;-2.42;73.62
75617;BME280;64200;55.426;37.758;2022-12-17T16:59:23;99387.81;;;-2.50;73.67
75617;BME280;64200;55.426;37.758;2022-12-17T17:04:24;99355.03;;;-2.53;74.27
75617;BME280;64200;55.426;37.758;2022-12-17T17:09:25;99353.84;;;-2.56;74.40
75617;BME280;64200;55.426;37.758;2022-12-17T17:14:26;99348.38;;;-2.63;74.62
75617;BME280;64200;55.426;37.758;2022-12-17T17:19:26;99340.53;;;-2.72;73.84
75617;BME280;64200;55.426;37.758;2022-12-17T17:24:27;99330.38;;;-2.71;74.33
75617;BME280;64200;55.426;37.758;2022-12-17T17:29:28;99320.25;;;-2.67;74.43
75617;BME280;64200;55.426;37.758;2022-12-17T17:34:28;99307.75;;;-2.75;74.97
75617;BME280;64200;55.426;37.758;2022-12-17T17:39:29;99302.66;;;-2.77;74.99
75617;BME280;64200;55.426;37.758;2022-12-17T17:44:32;99312.44;;;-2.76;74.88
75617;BME280;64200;55.426;37.758;2022-12-17T17:49:33;99305.81;;;-2.75;74.58
75617;BME280;64200;55.426;37.758;2022-12-17T17:54:34;99310.50;;;-2.72;74.78
75617;BME280;64200;55.426;37.758;2022-12-17T17:59:35;99323.38;;;-2.72;74.64
75617;BME280;64200;55.426;37.758;2022-12-17T18:04:35;99314.84;;;-2.63;74.39
75617;BME280;64200;55.426;37.758;2022-12-17T18:09:39;99311.69;;;-2.69;74.96
75617;BME280;64200;55.426;37.758;2022-12-17T18:14:40;99313.28;;;-2.57;75.40
75617;BME280;64200;55.426;37.758;2022-12-17T18:19:40;99307.41;;;-2.59;74.43
75617;BME280;64200;55.426;37.758;2022-12-17T18:24:41;99306.66;;;-2.53;75.00
75617;BME280;64200;55.426;37.758;2022-12-17T18:29:41;99301.19;;;-2.56;74.50
75617;BME280;64200;55.426;37.758;2022-12-17T18:34:42;99296.50;;;-2.52;74.92
75617;BME280;64200;55.426;37.758;2022-12-17T18:39:43;99285.97;;;-2.57;74.63
75617;BME280;64200;55.426;37.758;2022-12-17T18:44:44;99273.47;;;-2.55;75.01
75617;BME280;64200;55.426;37.758;2022-12-17T18:49:45;99255.16;;;-2.61;74.80
75617;BME280;64200;55.426;37.758;2022-12-17T18:54:45;99253.97;;;-2.57;74.40
75617;BME280;64200;55.426;37.758;2022-12-17T18:59:47;99249.28;;;-2.60;75.08
75617;BME280;64200;55.426;37.758;2022-12-17T19:04:48;99237.97;;;-2.69;75.18
75617;BME280;64200;55.426;37.758;2022-12-17T19:09:48;99234.06;;;-2.68;75.18
75617;BME280;64200;55.426;37.758;2022-12-17T19:14:49;99235.25;;;-2.66;75.51
75617;BME280;64200;55.426;37.758;2022-12-17T19:19:49;99234.84;;;-2.68;75.64
75617;BME280;64200;55.426;37.758;2022-12-17T19:24:53;99238.38;;;-2.63;75.43
75617;BME280;64200;55.426;37.758;2022-12-17T19:29:53;99230.94;;;-2.74;75.08
75617;BME280;64200;55.426;37.758;2022-12-17T19:34:56;99213.75;;;-2.74;74.78
75617;BME280;64200;55.426;37.758;2022-12-17T19:39:56;99227.41;;;-2.74;75.39
75617;BME280;64200;55.426;37.758;2022-12-17T19:44:57;99216.88;;;-2.76;75.35
75617;BME280;64200;55.426;37.758;2022-12-17T19:49:57;99204.41;;;-2.80;74.86
75617;BME280;64200;55.426;37.758;2022-12-17T19:54:58;99182.16;;;-2.90;75.58
75617;BME280;64200;55.426;37.758;2022-12-17T19:59:59;99171.66;;;-2.84;75.42
75617;BME280;64200;55.426;37.758;2022-12-17T20:05:00;99172.41;;;-2.87;75.15
75617;BME280;64200;55.426;37.758;2022-12-17T20:10:00;99175.91;;;-2.90;75.61
75617;BME280;64200;55.426;37.758;2022-12-17T20:15:01;99152.53;;;-2.88;75.75
75617;BME280;64200;55.426;37.758;2022-12-17T20:20:01;99152.53;;;-2.91;75.41
75617;BME280;64200;55.426;37.758;2022-12-17T20:25:03;99109.22;;;-3.07;75.64
75617;BME280;64200;55.426;37.758;2022-12-17T20:30:07;99101.41;;;-3.12;75.55
75617;BME280;64200;55.426;37.758;2022-12-17T20:35:08;99109.59;;;-3.09;76.09
75617;BME280;64200;55.426;37.758;2022-12-17T20:40:09;99112.72;;;-3.07;75.40
75617;BME280;64200;55.426;37.758;2022-12-17T20:45:10;99096.34;;;-3.07;75.76
75617;BME280;64200;55.426;37.758;2022-12-17T20:50:13;99048.00;;;-3.21;75.50
75617;BME280;64200;55.426;37.758;2022-12-17T20:55:13;99058.94;;;-3.13;76.11
75617;BME280;64200;55.426;37.758;2022-12-17T21:00:14;99042.56;;;-3.17;75.72
75617;BME280;64200;55.426;37.758;2022-12-17T21:05:17;99027.75;;;-3.20;75.43
75617;BME280;64200;55.426;37.758;2022-12-17T21:10:18;99004.38;;;-3.31;75.71
75617;BME280;64200;55.426;37.758;2022-12-17T21:15:19;98990.72;;;-3.46;75.81
75617;BME280;64200;55.426;37.758;2022-12-17T21:20:20;98970.44;;;-3.48;76.68
75617;BME280;64200;55.426;37.758;2022-12-17T21:25:21;98965.00;;;-3.48;76.57
75617;BME280;64200;55.426;37.758;2022-12-17T21:30:22;98951.75;;;-3.39;76.79
75617;BME280;64200;55.426;37.758;2022-12-17T21:35:22;98931.13;;;-3.40;76.42
75617;BME280;64200;55.426;37.758;2022-12-17T21:40:23;98917.88;;;-3.42;76.18
75617;BME280;64200;55.426;37.758;2022-12-17T21:45:23;98919.41;;;-3.48;76.73
75617;BME280;64200;55.426;37.758;2022-12-17T21:50:24;98931.13;;;-3.37;76.01
75617;BME280;64200;55.426;37.758;2022-12-17T21:55:25;98924.88;;;-3.41;76.67
75617;BME280;64200;55.426;37.758;2022-12-17T22:00:25;98926.44;;;-3.32;76.93
75617;BME280;64200;55.426;37.758;2022-12-17T22:05:27;98915.16;;;-3.24;75.97
75617;BME280;64200;55.426;37.758;2022-12-17T22:10:27;98910.88;;;-3.36;76.82
75617;BME280;64200;55.426;37.758;2022-12-17T22:15:28;98895.28;;;-3.39;76.71
75617;BME280;64200;55.426;37.758;2022-12-17T22:20:29;98881.63;;;-3.42;76.61
75617;BME280;64200;55.426;37.758;2022-12-17T22:25:29;98875.81;;;-3.51;76.96
75617;BME280;64200;55.426;37.758;2022-12-17T22:30:30;98865.28;;;-3.53;77.00
75617;BME280;64200;55.426;37.758;2022-12-17T22:35:49;98846.63;;;-3.58;77.10
75617;BME280;64200;55.426;37.758;2022-12-17T22:40:50;98827.53;;;-3.58;77.14
75617;BME280;64200;55.426;37.758;2022-12-17T22:45:50;98816.59;;;-3.51;77.67
75617;BME280;64200;55.426;37.758;2022-12-17T22:50:51;98801.81;;;-3.57;77.74
75617;BME280;64200;55.426;37.758;2022-12-17T22:55:52;98785.84;;;-3.66;77.92
75617;BME280;64200;55.426;37.758;2022-12-17T23:00:52;98782.34;;;-3.59;76.83
75617;BME280;64200;55.426;37.758;2022-12-17T23:06:04;98767.94;;;-3.63;77.14
75617;BME280;64200;55.426;37.758;2022-12-17T23:11:14;98746.53;;;-3.65;77.73
75617;BME280;64200;55.426;37.758;2022-12-17T23:16:15;98730.22;;;-3.68;77.11
75617;BME280;64200;55.426;37.758;2022-12-17T23:21:22;98733.28;;;-3.63;77.75
75617;BME280;64200;55.426;37.758;2022-12-17T23:26:29;98725.50;;;-3.54;77.35
75617;BME280;64200;55.426;37.758;2022-12-17T23:31:33;98714.97;;;-3.59;76.60
75617;BME280;64200;55.426;37.758;2022-12-17T23:36:34;98698.25;;;-3.72;77.64
75617;BME280;64200;55.426;37.758;2022-12-17T23:41:35;98675.69;;;-3.72;77.60
75617;BME280;64200;55.426;37.758;2022-12-17T23:46:38;98670.25;;;-3.79;77.61
75617;BME280;64200;55.426;37.758;2022-12-17T23:51:38;98655.50;;;-3.82;77.59
75617;BME280;64200;55.426;37.758;2022-12-17T23:56:39;98651.19;;;-3.86;77.70
